Time;durP1;ratioP1;P1;durP2;ratioP2;P2;SDS_P1;SDS_P2;PMS_P1;PMS_P2;Temp;Humidity;BMP_temperature;BMP_pressure;BME280_temperature;BME280_humidity;BME280_pressure;Samples;Min_cycle;Max_cycle;Signal;HPM_P1;HPM_P2
2021/11/29 00:01:05;;;;;;;15.05;13.45;;;;;;;6.98;86.56;96858.88;1681031;83;21037;-70
2021/11/29 00:03:33;;;;;;;14.68;13.08;;;;;;;6.87;87.01;96854.23;1679255;83;20931;-70
2021/11/29 00:06:01;;;;;;;15.55;14.03;;;;;;;6.72;87.63;96857.97;1644912;85;21176;-72
2021/11/29 00:08:28;;;;;;;14.78;13.38;;;;;;;6.67;88.16;96855.12;1642618;86;21524;-71
2021/11/29 00:10:55;;;;;;;12.95;11.80;;;;;;;6.59;88.56;96856.70;1642155;86;20961;-69
2021/11/29 00:13:21;;;;;;;19.15;13.22;;;;;;;6.64;88.46;96853.42;1684916;83;21139;-73
2021/11/29 00:15:49;;;;;;;13.78;12.40;;;;;;;6.59;88.29;96847.95;1675997;83;20974;-73
2021/11/29 00:18:16;;;;;;;13.70;12.37;;;;;;;6.50;88.41;96847.36;1690343;83;21868;-74
2021/11/29 00:20:45;;;;;;;13.98;12.68;;;;;;;6.42;88.95;96837.02;1691886;83;21037;-70
2021/11/29 00:23:14;;;;;;;13.98;12.68;;;;;;;6.38;90.11;96849.54;1686794;84;21017;-73
2021/11/29 00:25:43;;;;;;;17.40;13.40;;;;;;;6.36;89.73;96844.45;1687297;83;20907;-72
2021/11/29 00:28:12;;;;;;;14.93;12.63;;;;;;;6.42;89.83;96829.61;1680865;83;21003;-72
2021/11/29 00:30:39;;;;;;;12.88;11.57;;;;;;;6.45;90.00;96831.84;1682208;83;21106;-69
2021/11/29 00:33:08;;;;;;;13.65;12.25;;;;;;;6.47;90.06;96827.97;1690903;83;21486;-71
2021/11/29 00:35:36;;;;;;;14.40;13.10;;;;;;;6.47;90.11;96827.15;1682733;83;21066;-70
2021/11/29 00:38:05;;;;;;;14.03;12.63;;;;;;;6.41;90.29;96820.08;1684338;83;21018;-74
2021/11/29 00:40:34;;;;;;;13.95;12.35;;;;;;;6.30;90.37;96808.33;1695882;82;21413;-74
2021/11/29 00:43:01;;;;;;;15.18;13.65;;;;;;;6.28;90.55;96807.73;1701600;82;21226;-73
2021/11/29 00:45:28;;;;;;;16.00;13.58;;;;;;;6.32;90.56;96798.86;1658304;85;21006;-72
2021/11/29 00:47:55;;;;;;;16.77;12.73;;;;;;;6.38;90.90;96804.65;1668868;85;21058;-70
2021/11/29 00:50:22;;;;;;;13.83;11.88;;;;;;;6.38;90.98;96797.55;1645950;86;21599;-70
2021/11/29 00:52:49;;;;;;;17.90;13.38;;;;;;;6.35;91.60;96795.81;1644090;86;20923;-72
2021/11/29 00:55:16;;;;;;;15.58;12.98;;;;;;;6.36;91.58;96791.63;1642925;86;21190;-73
2021/11/29 00:57:44;;;;;;;15.63;14.13;;;;;;;6.36;91.86;96782.39;1645726;86;20951;-72
2021/11/29 01:00:18;;;;;;;13.25;12.00;;;;;;;6.38;91.95;96780.88;1664882;85;21006;-71
2021/11/29 01:02:46;;;;;;;20.77;14.43;;;;;;;6.43;92.13;96785.02;1668144;85;21464;-71
2021/11/29 01:05:12;;;;;;;20.20;14.40;;;;;;;6.50;92.19;96772.59;1659250;85;20899;-72
2021/11/29 01:07:39;;;;;;;14.70;13.25;;;;;;;6.51;92.44;96761.84;1673095;85;21219;-72
2021/11/29 01:10:08;;;;;;;15.45;14.03;;;;;;;6.60;92.52;96775.09;1704152;82;21595;-70
2021/11/29 01:12:35;;;;;;;15.45;13.88;;;;;;;6.52;93.22;96766.08;1705488;82;21026;-72
2021/11/29 01:15:04;;;;;;;15.60;14.10;;;;;;;6.54;93.37;96761.92;1695153;82;21525;-73
2021/11/29 01:17:31;;;;;;;16.48;13.68;;;;;;;6.55;93.79;96762.21;1707299;82;20945;-73
2021/11/29 01:19:57;;;;;;;14.53;12.75;;;;;;;6.60;93.91;96762.39;1696507;82;21158;-71
2021/11/29 01:22:24;;;;;;;15.20;13.70;;;;;;;6.66;94.15;96756.27;1699622;82;20942;-71
2021/11/29 01:24:51;;;;;;;15.95;14.25;;;;;;;6.68;94.37;96744.47;1703484;82;20902;-69
2021/11/29 01:27:18;;;;;;;14.93;13.45;;;;;;;6.71;94.44;96757.77;1702997;82;21520;-72
2021/11/29 01:29:44;;;;;;;15.10;13.60;;;;;;;6.73;94.83;96739.36;1704712;82;21133;-72
2021/11/29 01:32:11;;;;;;;15.78;14.28;;;;;;;6.77;94.76;96747.18;1706566;83;21176;-70
2021/11/29 01:34:38;;;;;;;15.80;14.13;;;;;;;6.89;94.53;96745.97;1697724;83;20958;-73
2021/11/29 01:37:04;;;;;;;15.65;14.15;;;;;;;6.93;94.60;96735.30;1700741;82;20990;-73
2021/11/29 01:39:31;;;;;;;15.13;13.68;;;;;;;7.00;94.24;96727.30;1704486;83;21008;-74
2021/11/29 01:42:00;;;;;;;16.30;14.30;;;;;;;7.04;94.12;96714.76;1705525;82;20996;-73
2021/11/29 01:44:26;;;;;;;15.15;13.65;;;;;;;7.04;94.45;96730.62;1714869;82;21176;-70
2021/11/29 01:46:53;;;;;;;15.75;14.33;;;;;;;7.07;94.12;96720.95;1703241;83;20930;-71
2021/11/29 01:49:20;;;;;;;18.85;14.78;;;;;;;7.09;94.16;96724.17;1703465;83;21513;-71
2021/11/29 01:51:47;;;;;;;15.58;14.03;;;;;;;7.09;94.12;96712.28;1698951;83;21017;-72
2021/11/29 01:54:14;;;;;;;14.93;13.43;;;;;;;7.09;94.22;96713.60;1703041;83;20965;-68
2021/11/29 01:56:41;;;;;;;16.20;14.53;;;;;;;7.07;94.30;96720.12;1701325;83;21190;-69
2021/11/29 01:59:07;;;;;;;20.65;15.68;;;;;;;7.11;94.33;96705.47;1702339;83;21645;-69
2021/11/29 02:01:34;;;;;;;22.50;15.70;;;;;;;7.12;94.30;96690.70;1702596;83;20913;-69
2021/11/29 02:04:01;;;;;;;16.00;14.38;;;;;;;7.22;94.30;96694.99;1703106;83;20966;-72
2021/11/29 02:06:31;;;;;;;16.37;14.75;;;;;;;7.27;94.16;96691.72;1700769;83;21027;-70
2021/11/29 02:08:58;;;;;;;18.50;16.25;;;;;;;7.30;94.16;96676.75;1700049;83;21106;-71
2021/11/29 02:11:26;;;;;;;17.20;15.43;;;;;;;7.32;94.18;96679.98;1700390;83;20910;-69
2021/11/29 02:13:56;;;;;;;17.77;16.05;;;;;;;7.39;94.17;96674.11;1708821;83;21040;-72
2021/11/29 02:16:23;;;;;;;18.35;16.52;;;;;;;7.44;94.27;96677.72;1702514;83;20973;-72
2021/11/29 02:18:51;;;;;;;16.85;15.32;;;;;;;7.50;94.25;96683.98;1705155;83;20981;-70
2021/11/29 02:21:20;;;;;;;17.37;15.68;;;;;;;7.54;94.21;96672.44;1707608;83;21517;-70
2021/11/29 02:23:55;;;;;;;18.95;16.00;;;;;;;7.56;94.37;96675.69;1695357;82;21000;-69
2021/11/29 02:26:26;;;;;;;18.10;16.40;;;;;;;7.62;94.40;96673.47;1690926;82;21571;-70
2021/11/29 02:29:00;;;;;;;17.35;15.65;;;;;;;7.66;94.11;96674.16;1696561;82;21073;-74
2021/11/29 02:31:33;;;;;;;19.40;17.45;;;;;;;7.71;94.23;96667.70;1698003;82;21555;-68
2021/11/29 02:34:12;;;;;;;19.82;16.87;;;;;;;7.72;94.20;96649.45;1697848;82;21129;-72
2021/11/29 02:36:40;;;;;;;19.52;17.48;;;;;;;7.79;94.17;96654.69;1703409;82;21010;-71
2021/11/29 02:39:07;;;;;;;18.65;16.70;;;;;;;7.82;94.04;96649.73;1706680;83;21551;-70
2021/11/29 02:41:35;;;;;;;18.23;16.15;;;;;;;7.85;94.20;96641.36;1696650;83;20926;-70
2021/11/29 02:44:01;;;;;;;19.10;17.07;;;;;;;7.86;94.18;96634.23;1701424;83;21039;-70
2021/11/29 02:46:30;;;;;;;21.65;17.92;;;;;;;7.91;94.13;96635.19;1698804;82;21911;-71
2021/11/29 02:48:56;;;;;;;18.50;16.60;;;;;;;7.95;94.12;96631.59;1697635;82;21008;-68
2021/11/29 02:51:30;;;;;;;20.37;17.77;;;;;;;8.06;94.00;96636.12;1706885;82;21575;-71
2021/11/29 02:54:09;;;;;;;19.95;17.87;;;;;;;8.11;93.98;96628.86;1661417;85;21624;-68
2021/11/29 02:56:38;;;;;;;20.72;18.02;;;;;;;8.09;93.95;96625.91;1632565;86;21049;-72
2021/11/29 02:59:08;;;;;;;19.98;17.70;;;;;;;8.14;93.95;96621.25;1646038;86;21190;-73
2021/11/29 03:01:37;;;;;;;19.98;17.90;;;;;;;8.24;93.90;96611.47;1645864;86;21029;-73
2021/11/29 03:04:04;;;;;;;21.12;17.98;;;;;;;8.29;93.73;96611.09;1650193;85;20891;-70
2021/11/29 03:06:31;;;;;;;21.10;17.87;;;;;;;8.35;93.41;96612.86;1674175;85;20963;-71
2021/11/29 03:08:59;;;;;;;21.07;18.70;;;;;;;8.40;93.43;96618.28;1655069;85;21534;-72
2021/11/29 03:11:27;;;;;;;23.05;18.62;;;;;;;8.47;93.35;96619.53;1649646;85;21172;-71
2021/11/29 03:13:54;;;;;;;22.27;19.77;;;;;;;8.56;93.19;96619.48;1643996;86;21053;-71
2021/11/29 03:16:21;;;;;;;20.43;18.32;;;;;;;8.61;93.16;96611.66;1644355;86;21492;-74
2021/11/29 03:18:47;;;;;;;22.30;18.92;;;;;;;8.64;92.74;96604.59;1645811;86;20970;-73
2021/11/29 03:21:17;;;;;;;22.35;18.98;;;;;;;8.65;92.55;96604.89;1640949;86;20943;-72
2021/11/29 03:23:47;;;;;;;21.02;18.52;;;;;;;8.62;92.57;96609.31;1637913;86;21804;-69
2021/11/29 03:26:18;;;;;;;20.65;18.02;;;;;;;8.59;92.60;96607.92;1635189;86;20908;-71
2021/11/29 03:28:46;;;;;;;22.98;19.23;;;;;;;8.61;92.65;96615.13;1662607;85;21448;-72
2021/11/29 03:31:13;;;;;;;24.25;18.87;;;;;;;8.58;92.82;96611.59;1695372;83;20970;-71
2021/11/29 03:33:41;;;;;;;22.45;18.55;;;;;;;8.61;92.89;96608.50;1710832;82;21555;-71
2021/11/29 03:36:08;;;;;;;19.98;17.57;;;;;;;8.65;92.96;96605.70;1700525;82;21172;-71
2021/11/29 03:38:34;;;;;;;22.00;17.70;;;;;;;8.73;93.01;96605.08;1699933;82;21649;-71
2021/11/29 03:41:01;;;;;;;24.15;19.17;;;;;;;8.81;92.99;96596.80;1687509;82;21009;-69
2021/11/29 03:43:28;;;;;;;23.57;19.42;;;;;;;8.86;92.72;96591.11;1681362;84;21082;-71
2021/11/29 03:45:55;;;;;;;24.05;19.90;;;;;;;8.90;92.68;96595.41;1674122;84;21063;-71
2021/11/29 03:48:22;;;;;;;24.23;19.30;;;;;;;8.92;92.72;96584.86;1675663;84;21845;-69
2021/11/29 03:50:49;;;;;;;22.00;19.67;;;;;;;9.00;92.72;96575.25;1671905;84;20905;-68
2021/11/29 03:53:16;;;;;;;24.85;19.80;;;;;;;9.08;92.56;96568.79;1669142;84;20914;-72
2021/11/29 03:55:42;;;;;;;25.65;19.85;;;;;;;9.14;92.42;96563.90;1673936;84;21449;-71
2021/11/29 03:58:10;;;;;;;23.25;19.20;;;;;;;9.15;92.18;96570.28;1670800;84;21058;-69
2021/11/29 04:00:36;;;;;;;29.48;20.60;;;;;;;9.17;92.30;96574.05;1681789;84;21151;-73
2021/11/29 04:03:04;;;;;;;26.55;20.43;;;;;;;9.19;92.07;96568.80;1673864;84;20954;-69
2021/11/29 04:05:31;;;;;;;30.35;20.60;;;;;;;9.21;91.98;96559.28;1670576;84;22024;-72
2021/11/29 04:07:58;;;;;;;28.90;20.95;;;;;;;9.21;91.96;96552.64;1671549;84;21049;-72
2021/11/29 04:10:24;;;;;;;26.62;20.12;;;;;;;9.24;91.98;96547.69;1674739;84;21431;-70
2021/11/29 04:12:51;;;;;;;27.58;21.00;;;;;;;9.31;91.88;96548.88;1669475;84;21161;-71
2021/11/29 04:15:18;;;;;;;29.30;21.35;;;;;;;9.31;91.80;96543.58;1670912;84;20994;-72
2021/11/29 04:17:44;;;;;;;28.47;21.15;;;;;;;9.32;91.88;96541.22;1672247;84;21089;-71
2021/11/29 04:20:14;;;;;;;26.25;21.07;;;;;;;9.43;91.62;96539.59;1669896;84;21077;-74
2021/11/29 04:22:40;;;;;;;24.65;19.62;;;;;;;9.55;91.29;96537.20;1675207;84;21471;-73
2021/11/29 04:25:10;;;;;;;26.90;19.02;;;;;;;9.65;90.85;96536.08;1665738;84;21163;-72
2021/11/29 04:27:40;;;;;;;24.57;19.00;;;;;;;9.62;91.09;96535.75;1670219;84;21040;-71
2021/11/29 04:30:13;;;;;;;28.15;18.98;;;;;;;9.62;91.05;96531.78;1674140;84;21045;-71
2021/11/29 04:32:42;;;;;;;21.70;18.52;;;;;;;9.66;91.15;96539.54;1674846;84;20985;-71
2021/11/29 04:35:09;;;;;;;19.73;17.40;;;;;;;9.67;91.02;96526.02;1660677;84;20949;-71
2021/11/29 04:37:38;;;;;;;24.32;18.42;;;;;;;9.75;90.88;96530.18;1670857;84;21079;-70
2021/11/29 04:40:06;;;;;;;23.75;19.60;;;;;;;9.79;90.69;96511.39;1675946;84;21057;-70
2021/11/29 04:42:33;;;;;;;26.45;18.73;;;;;;;9.80;90.39;96506.38;1692564;83;20953;-73
2021/11/29 04:45:00;;;;;;;24.35;18.37;;;;;;;9.79;90.25;96516.70;1677692;84;20961;-69
2021/11/29 04:47:27;;;;;;;24.60;19.35;;;;;;;9.78;90.08;96514.56;1697698;83;21527;-71
2021/11/29 04:49:54;;;;;;;22.20;17.48;;;;;;;9.84;89.93;96510.98;1686577;83;21147;-71
2021/11/29 04:52:22;;;;;;;22.32;17.75;;;;;;;9.76;89.93;96510.02;1655634;85;20919;-71
2021/11/29 04:54:48;;;;;;;23.00;18.17;;;;;;;9.84;89.91;96493.72;1646425;86;20954;-72
2021/11/29 04:57:15;;;;;;;19.10;17.12;;;;;;;9.91;89.79;96495.70;1648861;86;21026;-73
2021/11/29 04:59:41;;;;;;;25.45;19.52;;;;;;;9.91;89.30;96490.39;1647117;86;21486;-74
2021/11/29 05:02:08;;;;;;;22.32;17.95;;;;;;;9.93;89.22;96493.61;1655944;85;21308;-71
2021/11/29 05:04:36;;;;;;;22.22;17.87;;;;;;;9.87;89.24;96495.91;1644345;85;20883;-77
2021/11/29 05:07:04;;;;;;;22.93;18.42;;;;;;;9.89;89.29;96492.48;1697272;83;20946;-72
2021/11/29 05:09:32;;;;;;;21.17;17.20;;;;;;;9.89;89.24;96487.69;1692758;83;21010;-72
2021/11/29 05:11:59;;;;;;;21.40;18.52;;;;;;;9.89;89.13;96489.02;1695007;83;20961;-75
2021/11/29 05:14:27;;;;;;;24.82;17.95;;;;;;;9.91;89.05;96497.03;1692486;83;21136;-73
2021/11/29 05:16:54;;;;;;;26.62;18.52;;;;;;;9.92;89.01;96505.80;1690537;83;21472;-74
2021/11/29 05:19:21;;;;;;;22.60;18.32;;;;;;;9.88;89.14;96497.50;1685011;84;21002;-72
2021/11/29 05:21:47;;;;;;;22.65;17.92;;;;;;;9.91;88.97;96497.03;1691116;83;21001;-72
2021/11/29 05:24:14;;;;;;;19.55;17.17;;;;;;;10.03;88.72;96502.30;1686386;83;21563;-76
2021/11/29 05:26:40;;;;;;;21.80;17.75;;;;;;;10.04;88.50;96515.06;1691935;83;21499;-71
2021/11/29 05:29:07;;;;;;;20.62;17.12;;;;;;;10.04;88.49;96492.48;1682991;84;20997;-71
2021/11/29 05:31:33;;;;;;;21.35;18.90;;;;;;;10.09;88.47;96489.92;1686122;83;21513;-74
2021/11/29 05:34:02;;;;;;;23.90;18.17;;;;;;;10.08;88.18;96489.63;1645810;86;21068;-75
2021/11/29 05:36:29;;;;;;;19.40;17.30;;;;;;;10.09;88.04;96484.06;1656745;85;21037;-72
2021/11/29 05:38:55;;;;;;;21.65;17.27;;;;;;;10.13;87.76;96491.88;1658455;85;22306;-72
2021/11/29 05:41:24;;;;;;;21.65;17.95;;;;;;;10.14;87.72;96495.35;1630892;86;20879;-72
2021/11/29 05:43:51;;;;;;;19.85;17.32;;;;;;;10.13;87.66;96496.38;1682360;83;21005;-71
2021/11/29 05:46:22;;;;;;;20.68;17.80;;;;;;;10.16;87.59;96501.22;1678516;83;21117;-71
2021/11/29 05:48:46;;;;;;;25.48;18.25;;;;;;;10.23;87.12;96496.04;1678135;83;21054;-67
2021/11/29 05:51:13;;;;;;;23.60;17.80;;;;;;;10.23;86.95;96506.67;1685339;83;21152;-69
2021/11/29 05:53:40;;;;;;;23.35;16.50;;;;;;;10.31;86.77;96504.95;1683685;83;21041;-68
2021/11/29 05:56:08;;;;;;;19.10;17.15;;;;;;;10.35;86.72;96503.41;1687605;83;21109;-69
2021/11/29 05:58:36;;;;;;;23.38;18.52;;;;;;;10.36;86.71;96512.20;1649717;85;21018;-68
2021/11/29 06:01:03;;;;;;;21.52;17.05;;;;;;;10.40;86.34;96515.45;1635713;85;20906;-65
2021/11/29 06:03:31;;;;;;;23.77;17.82;;;;;;;10.37;86.20;96517.80;1633903;86;21182;-66
2021/11/29 06:05:58;;;;;;;19.77;17.17;;;;;;;10.36;86.23;96516.99;1633123;86;21101;-71
2021/11/29 06:08:24;;;;;;;21.40;17.87;;;;;;;10.39;86.08;96516.52;1649127;85;21034;-67
2021/11/29 06:10:51;;;;;;;20.50;18.05;;;;;;;10.39;85.96;96516.52;1640352;86;21133;-72
2021/11/29 06:13:18;;;;;;;21.17;17.30;;;;;;;10.45;85.83;96512.09;1647644;85;21010;-67
2021/11/29 06:15:46;;;;;;;21.65;17.45;;;;;;;10.48;85.72;96515.05;1637285;86;21139;-68
2021/11/29 06:18:14;;;;;;;20.52;17.05;;;;;;;10.52;85.62;96516.72;1684928;83;20962;-68
2021/11/29 06:20:41;;;;;;;20.02;17.85;;;;;;;10.59;85.36;96518.69;1674091;83;20946;-68
2021/11/29 06:23:07;;;;;;;20.57;18.40;;;;;;;10.64;85.20;96510.02;1683539;83;21526;-68
2021/11/29 06:25:37;;;;;;;20.25;17.62;;;;;;;10.61;85.11;96525.11;1688030;83;20938;-68
2021/11/29 06:28:06;;;;;;;23.35;18.75;;;;;;;10.65;85.14;96509.76;1684940;83;21144;-66
2021/11/29 06:30:35;;;;;;;23.95;18.75;;;;;;;10.62;85.16;96504.92;1684521;84;21055;-66
2021/11/29 06:33:02;;;;;;;19.32;17.30;;;;;;;10.65;85.21;96504.96;1688208;83;21541;-69
2021/11/29 06:35:29;;;;;;;21.48;17.15;;;;;;;10.68;85.10;96494.66;1686711;83;20974;-68
2021/11/29 06:38:04;;;;;;;19.90;16.23;;;;;;;10.69;85.00;96497.58;1687156;83;21084;-68
2021/11/29 06:40:31;;;;;;;20.35;17.20;;;;;;;10.71;84.93;96498.17;1684467;83;21137;-69
2021/11/29 06:42:58;;;;;;;20.82;18.23;;;;;;;10.73;85.01;96496.06;1688342;83;21037;-65
2021/11/29 06:45:25;;;;;;;19.67;16.97;;;;;;;10.78;84.76;96490.01;1689679;84;20907;-68
2021/11/29 06:47:54;;;;;;;22.65;18.42;;;;;;;10.84;84.76;96495.70;1694111;83;21083;-69
2021/11/29 06:50:21;;;;;;;21.82;18.25;;;;;;;10.88;84.80;96501.61;1693592;83;21049;-69
2021/11/29 06:52:48;;;;;;;21.93;18.73;;;;;;;10.92;84.70;96501.39;1691305;83;22017;-69
2021/11/29 06:55:16;;;;;;;25.35;19.82;;;;;;;10.97;84.65;96498.83;1691354;83;21186;-68
2021/11/29 06:57:44;;;;;;;22.25;17.90;;;;;;;11.03;84.54;96491.70;1690833;83;21049;-69
2021/11/29 07:00:15;;;;;;;25.97;19.40;;;;;;;11.08;84.50;96493.91;1691979;83;20994;-67
2021/11/29 07:02:43;;;;;;;21.48;18.20;;;;;;;11.14;84.34;96488.14;1689602;83;20901;-69
2021/11/29 07:05:10;;;;;;;19.73;17.40;;;;;;;11.18;84.28;96479.41;1696196;83;21140;-68
2021/11/29 07:07:37;;;;;;;22.20;18.02;;;;;;;11.23;84.09;96477.88;1695372;83;21499;-68
2021/11/29 07:10:05;;;;;;;20.27;18.10;;;;;;;11.27;83.98;96473.66;1691363;83;20994;-69
2021/11/29 07:12:34;;;;;;;23.60;17.25;;;;;;;11.35;83.55;96465.25;1698629;83;20942;-68
2021/11/29 07:15:03;;;;;;;23.73;18.55;;;;;;;11.38;83.40;96464.25;1694044;83;21009;-74
2021/11/29 07:17:32;;;;;;;21.52;18.02;;;;;;;11.44;83.14;96468.59;1697559;83;21207;-69
2021/11/29 07:19:58;;;;;;;24.15;18.65;;;;;;;11.49;82.92;96467.84;1699025;83;21064;-69
2021/11/29 07:22:25;;;;;;;21.52;18.23;;;;;;;11.55;82.61;96468.19;1698218;83;21432;-71
2021/11/29 07:24:53;;;;;;;23.62;19.77;;;;;;;11.59;82.42;96467.95;1693152;83;20958;-69
2021/11/29 07:27:22;;;;;;;26.17;20.48;;;;;;;11.60;82.32;96461.03;1692697;83;20962;-71
2021/11/29 07:29:52;;;;;;;22.58;18.85;;;;;;;11.62;82.16;96454.14;1692747;83;21982;-68
2021/11/29 07:32:20;;;;;;;23.22;17.62;;;;;;;11.68;81.89;96457.13;1692483;84;20945;-69
2021/11/29 07:34:47;;;;;;;25.85;20.02;;;;;;;11.72;81.56;96466.27;1698000;83;21612;-70
2021/11/29 07:37:19;;;;;;;27.22;19.90;;;;;;;11.74;81.36;96464.97;1697039;83;20918;-70
2021/11/29 07:39:46;;;;;;;26.02;20.20;;;;;;;11.76;81.14;96454.86;1695677;83;21002;-69
2021/11/29 07:42:14;;;;;;;28.65;20.12;;;;;;;11.81;80.88;96458.09;1686405;83;21152;-71
2021/11/29 07:44:41;;;;;;;24.45;18.65;;;;;;;11.81;80.84;96455.44;1688703;83;21121;-69
2021/11/29 07:47:08;;;;;;;21.77;19.45;;;;;;;11.85;80.71;96461.08;1687548;83;21727;-69
2021/11/29 07:49:35;;;;;;;29.05;23.02;;;;;;;11.87;80.48;96462.43;1680957;85;20966;-70
2021/11/29 07:52:04;;;;;;;28.30;23.42;;;;;;;11.89;80.16;96464.31;1688318;83;20991;-70
2021/11/29 07:54:31;;;;;;;26.65;19.65;;;;;;;11.92;79.83;96461.15;1686035;83;21169;-68
2021/11/29 07:56:58;;;;;;;27.95;18.82;;;;;;;11.86;79.66;96460.03;1684013;83;21025;-68
2021/11/29 07:59:24;;;;;;;25.97;19.42;;;;;;;11.74;79.44;96459.64;1646148;85;21485;-70
2021/11/29 08:01:51;;;;;;;23.60;19.98;;;;;;;11.63;79.88;96450.41;1637729;86;21011;-71
2021/11/29 08:04:17;;;;;;;30.65;23.00;;;;;;;11.58;79.97;96455.69;1637349;86;21113;-69
2021/11/29 08:06:46;;;;;;;30.43;24.02;;;;;;;11.56;80.21;96447.15;1633720;86;21274;-69
2021/11/29 08:09:15;;;;;;;31.87;24.47;;;;;;;11.52;80.53;96452.16;1636153;86;21106;-76
2021/11/29 08:11:42;;;;;;;29.12;24.00;;;;;;;11.53;80.55;96449.78;1636772;86;20983;-74
2021/11/29 08:14:08;;;;;;;31.05;25.48;;;;;;;11.55;80.69;96450.88;1631448;86;20970;-75
2021/11/29 08:16:35;;;;;;;29.77;24.00;;;;;;;11.60;80.59;96450.94;1637352;86;20978;-76
2021/11/29 08:19:04;;;;;;;31.23;24.98;;;;;;;11.61;80.58;96444.02;1629889;86;20872;-76
2021/11/29 08:21:30;;;;;;;30.00;25.68;;;;;;;11.65;80.45;96449.66;1638037;86;20928;-73
2021/11/29 08:23:57;;;;;;;35.00;25.70;;;;;;;11.72;80.28;96447.63;1642259;86;21145;-72
2021/11/29 08:26:24;;;;;;;31.77;23.57;;;;;;;11.74;80.27;96445.52;1634177;86;20943;-69
2021/11/29 08:28:50;;;;;;;34.65;26.68;;;;;;;11.80;80.04;96447.70;1633857;86;21472;-70
2021/11/29 08:31:17;;;;;;;35.75;25.95;;;;;;;11.86;79.79;96440.87;1631864;86;21516;-69
2021/11/29 08:33:45;;;;;;;37.88;27.32;;;;;;;11.87;79.76;96430.98;1634072;86;20892;-71
2021/11/29 08:36:12;;;;;;;36.68;29.87;;;;;;;11.81;79.73;96438.12;1634648;86;21459;-70
2021/11/29 08:38:39;;;;;;;45.83;33.98;;;;;;;11.83;79.83;96448.55;1632500;86;21039;-71
2021/11/29 08:41:08;;;;;;;51.05;37.03;;;;;;;11.84;79.79;96456.79;1638690;86;20994;-71
2021/11/29 08:43:38;;;;;;;48.65;35.15;;;;;;;11.88;79.62;96449.41;1648429;86;21137;-72
2021/11/29 08:46:03;;;;;;;53.80;38.92;;;;;;;11.84;79.72;96441.63;1646398;86;21022;-71
2021/11/29 08:48:32;;;;;;;42.23;32.38;;;;;;;11.89;79.51;96436.89;1653773;86;21002;-73
2021/11/29 08:50:59;;;;;;;37.53;30.02;;;;;;;11.93;79.37;96420.15;1652912;86;21429;-73
2021/11/29 08:53:26;;;;;;;31.57;23.00;;;;;;;11.95;79.27;96415.37;1650470;86;21509;-68
2021/11/29 08:55:54;;;;;;;31.33;24.30;;;;;;;11.97;79.19;96403.11;1648010;85;21749;-72
2021/11/29 08:58:21;;;;;;;28.23;21.80;;;;;;;11.98;79.07;96397.55;1649856;86;21485;-72
2021/11/29 09:00:52;;;;;;;26.97;22.02;;;;;;;11.99;79.03;96391.15;1656084;86;21078;-74
2021/11/29 09:03:19;;;;;;;23.52;20.65;;;;;;;12.02;78.88;96382.66;1644192;85;22238;-76
2021/11/29 09:05:46;;;;;;;26.05;21.33;;;;;;;12.04;78.75;96381.89;1653771;86;20918;-80
2021/11/29 09:08:13;;;;;;;26.35;20.65;;;;;;;12.06;78.61;96374.45;1650558;86;21986;-72
2021/11/29 09:10:42;;;;;;;29.63;20.88;;;;;;;12.07;78.51;96385.36;1650616;85;21026;-71
2021/11/29 09:13:09;;;;;;;28.27;22.55;;;;;;;12.07;78.45;96388.02;1645784;85;21006;-73
2021/11/29 09:15:38;;;;;;;30.27;22.07;;;;;;;12.08;78.34;96389.64;1646966;86;20967;-69
2021/11/29 09:18:05;;;;;;;33.48;23.62;;;;;;;12.11;78.19;96391.80;1649224;86;21072;-74
2021/11/29 09:20:32;;;;;;;31.15;22.13;;;;;;;12.08;77.92;96392.83;1649741;85;21160;-70
2021/11/29 09:22:59;;;;;;;31.40;22.87;;;;;;;12.04;77.82;96392.55;1655206;86;21125;-71
2021/11/29 09:25:27;;;;;;;25.68;19.10;;;;;;;11.98;77.78;96398.88;1652048;84;21493;-73
2021/11/29 09:27:56;;;;;;;22.15;19.05;;;;;;;11.88;77.72;96401.45;1654633;86;21027;-71
2021/11/29 09:30:22;;;;;;;21.97;18.98;;;;;;;11.74;77.62;96408.23;1645554;86;21030;-72
2021/11/29 09:32:49;;;;;;;21.05;18.12;;;;;;;11.65;77.81;96393.74;1648427;86;21525;-73
2021/11/29 09:35:18;;;;;;;22.65;18.45;;;;;;;11.64;78.00;96385.47;1656524;86;21002;-71
2021/11/29 09:37:45;;;;;;;20.90;18.70;;;;;;;11.64;78.08;96358.84;1670936;85;21535;-75
2021/11/29 09:40:19;;;;;;;24.43;18.82;;;;;;;11.64;77.92;96353.52;1668194;84;20974;-70
2021/11/29 09:42:46;;;;;;;19.25;17.35;;;;;;;11.62;78.07;96362.29;1665848;85;20967;-72
2021/11/29 09:45:13;;;;;;;19.85;17.73;;;;;;;11.62;78.01;96365.77;1673957;84;21559;-74
2021/11/29 09:47:41;;;;;;;24.00;18.60;;;;;;;11.56;78.16;96361.95;1667540;85;21014;-72
2021/11/29 09:50:08;;;;;;;20.32;17.95;;;;;;;11.46;78.10;96368.51;1673277;84;21127;-72
2021/11/29 09:52:37;;;;;;;22.42;20.12;;;;;;;11.44;78.20;96379.94;1677440;84;21120;-72
2021/11/29 09:55:05;;;;;;;24.63;20.25;;;;;;;11.44;78.21;96368.77;1671637;84;21082;-74
2021/11/29 09:57:32;;;;;;;28.65;21.68;;;;;;;11.47;78.09;96368.25;1654087;85;21878;-70
2021/11/29 09:59:59;;;;;;;23.45;21.00;;;;;;;11.48;77.72;96373.05;1656639;85;21084;-72
2021/11/29 10:02:26;;;;;;;24.98;20.40;;;;;;;11.49;77.53;96374.67;1660592;85;21046;-72
2021/11/29 10:04:53;;;;;;;23.95;19.98;;;;;;;11.42;77.41;96372.19;1659399;85;21029;-74
2021/11/29 10:07:29;;;;;;;24.32;20.32;;;;;;;11.41;77.36;96371.93;1662330;85;21057;-76
2021/11/29 10:09:59;;;;;;;;;;;;;;;11.38;78.77;96371.61;1660710;85;21142;-74
2021/11/29 10:12:27;;;;;;;21.82;18.85;;;;;;;11.35;77.75;96374.25;1655751;85;20155;-75
2021/11/29 10:15:28;;;;;;;17.80;16.00;;;;;;;11.31;77.57;96363.03;1660598;85;20970;-73
2021/11/29 10:18:22;;;;;;;16.85;15.20;;;;;;;11.22;77.75;96357.86;1656523;85;20994;-75
2021/11/29 10:21:08;;;;;;;16.93;15.23;;;;;;;11.08;77.54;96350.25;1658373;85;21563;-68
2021/11/29 10:23:47;;;;;;;15.95;14.28;;;;;;;10.95;77.78;96352.51;1659197;85;22025;-69
2021/11/29 10:26:21;;;;;;;14.75;13.35;;;;;;;10.89;77.74;96350.31;1629204;86;20969;-67
2021/11/29 10:29:01;;;;;;;14.47;13.15;;;;;;;10.84;77.59;96355.56;1662428;85;21007;-67
2021/11/29 10:31:38;;;;;;;15.78;13.93;;;;;;;10.78;77.89;96344.58;1662209;84;21584;-63
2021/11/29 10:34:18;;;;;;;15.38;13.83;;;;;;;10.73;78.17;96348.50;1658008;84;21096;-66
2021/11/29 10:36:49;;;;;;;16.07;14.33;;;;;;;10.63;78.19;96340.40;1664712;84;21134;-70
2021/11/29 10:39:19;;;;;;;15.23;13.72;;;;;;;10.52;78.44;96341.30;1661316;85;20982;-69
2021/11/29 10:41:50;;;;;;;16.05;14.25;;;;;;;10.50;78.58;96340.75;1662377;84;21179;-68
2021/11/29 10:44:21;;;;;;;16.12;14.60;;;;;;;10.53;78.66;96350.34;1714388;83;21030;-69
2021/11/29 10:46:52;;;;;;;15.85;14.25;;;;;;;10.54;78.87;96351.16;1717628;83;21040;-70
2021/11/29 10:49:21;;;;;;;16.30;14.65;;;;;;;10.53;78.91;96359.65;1711405;82;21811;-70
2021/11/29 10:51:50;;;;;;;13.85;12.55;;;;;;;10.49;78.77;96361.72;1703890;82;20961;-72
2021/11/29 10:54:20;;;;;;;13.78;12.35;;;;;;;10.48;78.91;96359.58;1707767;82;21037;-69
2021/11/29 10:56:47;;;;;;;13.85;12.47;;;;;;;10.49;78.90;96355.08;1703612;82;20922;-70
2021/11/29 10:59:21;;;;;;;13.13;11.88;;;;;;;10.50;78.63;96350.86;1707132;82;21115;-69
2021/11/29 11:01:55;;;;;;;12.93;11.53;;;;;;;10.51;78.41;96352.45;1711616;83;21153;-72
2021/11/29 11:04:25;;;;;;;13.68;12.05;;;;;;;10.37;79.09;96350.39;1717521;83;20970;-69
2021/11/29 11:07:25;;;;;;;14.85;13.53;;;;;;;10.34;79.26;96341.06;1717523;83;20974;-73
2021/11/29 11:09:53;;;;;;;20.17;16.75;;;;;;;10.32;79.37;96349.80;1709499;82;21093;-70
2021/11/29 11:12:20;;;;;;;17.95;16.20;;;;;;;10.27;79.24;96341.73;1715564;83;21180;-70
2021/11/29 11:14:55;;;;;;;17.57;15.88;;;;;;;10.23;79.46;96337.16;1713447;83;21168;-68
2021/11/29 11:17:24;;;;;;;15.13;13.55;;;;;;;10.20;79.79;96334.98;1699076;82;21010;-69
2021/11/29 11:19:55;;;;;;;14.65;13.30;;;;;;;10.16;80.06;96332.55;1711797;83;21080;-73
2021/11/29 11:22:33;;;;;;;14.50;13.05;;;;;;;10.10;79.96;96332.15;1711570;83;20907;-74
2021/11/29 11:25:09;;;;;;;14.40;12.88;;;;;;;10.05;79.89;96330.75;1709773;83;21135;-75
2021/11/29 11:27:40;;;;;;;13.40;12.10;;;;;;;9.97;80.90;96326.64;1714219;83;21582;-73